createdAt,value
2022-10-13T00:00:17.285Z,18
2022-10-13T00:05:17.369Z,21
2022-10-13T00:10:17.292Z,17
2022-10-13T00:15:17.332Z,16
2022-10-13T00:20:17.510Z,17
2022-10-13T00:25:17.488Z,18
2022-10-13T00:30:17.422Z,18
2022-10-13T00:35:17.483Z,15
2022-10-13T00:40:15.480Z,20
2022-10-13T00:45:15.612Z,16
2022-10-13T00:50:15.491Z,17
2022-10-13T00:55:15.421Z,18
2022-10-13T01:00:15.530Z,21
2022-10-13T01:05:15.566Z,18
2022-10-13T01:10:15.393Z,19
2022-10-13T01:15:15.448Z,17
2022-10-13T01:20:15.577Z,15
2022-10-13T01:25:15.537Z,17
2022-10-13T01:30:15.447Z,18
2022-10-13T01:35:15.566Z,17
2022-10-13T01:40:15.562Z,19
2022-10-13T01:45:15.553Z,18
2022-10-13T01:50:15.539Z,17
2022-10-13T01:55:15.785Z,14
2022-10-13T02:00:15.571Z,15
2022-10-13T02:05:15.674Z,15
2022-10-13T02:10:15.562Z,13
2022-10-13T02:15:15.684Z,13
2022-10-13T02:20:15.431Z,14
2022-10-13T02:25:15.623Z,14
2022-10-13T02:30:15.550Z,14
2022-10-13T02:35:16.795Z,14
2022-10-13T02:40:16.645Z,15
2022-10-13T02:45:16.656Z,16
2022-10-13T02:50:16.582Z,14
2022-10-13T02:55:16.741Z,15
2022-10-13T03:00:16.702Z,14
2022-10-13T03:05:16.670Z,13
2022-10-13T03:10:16.778Z,12
2022-10-13T03:15:16.734Z,14
2022-10-13T03:20:16.710Z,13
2022-10-13T03:25:16.792Z,14
2022-10-13T03:30:16.741Z,12
2022-10-13T03:35:16.767Z,14
2022-10-13T03:40:16.765Z,12
2022-10-13T03:45:16.730Z,12
2022-10-13T03:50:16.772Z,12
2022-10-13T03:55:16.805Z,10
2022-10-13T04:00:15.724Z,11
2022-10-13T04:05:15.890Z,11
2022-10-13T04:10:15.919Z,12
2022-10-13T04:15:15.821Z,12
2022-10-13T04:20:15.685Z,13
2022-10-13T04:25:15.819Z,13
2022-10-13T04:30:15.919Z,13
2022-10-13T04:35:15.890Z,11
2022-10-13T04:40:15.892Z,13
2022-10-13T04:45:15.911Z,13
2022-10-13T04:50:15.910Z,14
2022-10-13T04:55:15.912Z,13
2022-10-13T05:00:15.903Z,13
2022-10-13T05:05:15.907Z,12
2022-10-13T05:10:15.999Z,11
2022-10-13T05:15:15.915Z,13
2022-10-13T05:20:16.072Z,11
2022-10-13T05:25:16.050Z,11
2022-10-13T05:30:15.947Z,10
2022-10-13T05:35:15.940Z,12
2022-10-13T05:40:15.907Z,13
2022-10-13T05:45:16.047Z,12
2022-10-13T05:50:16.148Z,12
2022-10-13T05:55:16.026Z,13
2022-10-13T06:00:15.989Z,11
2022-10-13T06:05:16.150Z,11
2022-10-13T06:10:16.024Z,10
2022-10-13T06:15:16.036Z,10
2022-10-13T06:20:15.928Z,13
2022-10-13T06:25:16.266Z,13
2022-10-13T06:30:16.152Z,12
2022-10-13T06:35:17.101Z,14
2022-10-13T06:40:17.135Z,12
2022-10-13T06:45:17.091Z,12
2022-10-13T06:50:17.099Z,12
2022-10-13T06:55:17.154Z,11
2022-10-13T07:00:17.156Z,12
2022-10-13T07:05:17.261Z,12
2022-10-13T07:10:17.152Z,14
2022-10-13T07:15:17.111Z,13
2022-10-13T07:20:17.119Z,13
2022-10-13T07:25:17.172Z,14
2022-10-13T07:30:17.349Z,15
2022-10-13T07:35:17.162Z,17
2022-10-13T07:40:17.249Z,16
2022-10-13T07:45:17.274Z,17
2022-10-13T07:50:17.342Z,14
2022-10-13T07:55:17.203Z,14
2022-10-13T08:00:17.293Z,14
2022-10-13T08:05:17.369Z,13
2022-10-13T08:10:17.413Z,12
2022-10-13T08:15:17.288Z,13
2022-10-13T08:20:17.227Z,13
2022-10-13T08:25:17.232Z,13
2022-10-13T08:30:17.467Z,14
2022-10-13T08:35:17.329Z,12
2022-10-13T08:40:17.805Z,14
2022-10-13T08:45:45.919Z,12
2022-10-13T08:50:17.421Z,12
2022-10-13T08:55:17.418Z,14
2022-10-13T09:00:17.423Z,13
2022-10-13T09:05:15.314Z,12
2022-10-13T09:10:15.535Z,16
2022-10-13T09:15:15.695Z,14
2022-10-13T09:20:15.691Z,12
2022-10-13T09:25:15.447Z,12
2022-10-13T09:30:15.610Z,13
2022-10-13T09:35:15.514Z,12
2022-10-13T09:40:15.522Z,16
2022-10-13T09:45:15.513Z,13
2022-10-13T09:50:15.527Z,13
2022-10-13T09:55:15.472Z,14
2022-10-13T10:00:15.566Z,16
2022-10-13T10:05:15.537Z,16
2022-10-13T10:10:15.529Z,21
2022-10-13T10:15:15.522Z,20
2022-10-13T10:20:15.506Z,19
2022-10-13T10:25:15.669Z,21
2022-10-13T10:30:15.555Z,19
2022-10-13T10:35:15.732Z,24
2022-10-13T10:40:15.599Z,19
2022-10-13T10:45:15.591Z,20
2022-10-13T10:50:15.658Z,21
2022-10-13T10:55:15.632Z,21
2022-10-13T11:00:15.796Z,20
2022-10-13T11:05:15.948Z,19
2022-10-13T11:10:15.682Z,18
2022-10-13T11:15:15.629Z,22
2022-10-13T11:20:15.658Z,21
2022-10-13T11:25:15.686Z,22
2022-10-13T11:30:15.719Z,21
2022-10-13T11:35:15.772Z,24
2022-10-13T11:40:15.709Z,18
2022-10-13T11:45:15.785Z,19
2022-10-13T11:50:15.758Z,23
2022-10-13T11:55:15.678Z,28
2022-10-13T12:00:15.725Z,21
2022-10-13T12:05:15.768Z,23
2022-10-13T12:10:15.762Z,24
2022-10-13T12:15:15.773Z,25
2022-10-13T12:20:15.761Z,23
2022-10-13T12:25:15.952Z,24
2022-10-13T12:30:15.792Z,25
2022-10-13T12:35:15.860Z,24
2022-10-13T12:40:15.802Z,22
2022-10-13T12:45:15.825Z,24
2022-10-13T12:50:15.829Z,22
2022-10-13T12:55:15.870Z,25
2022-10-13T13:00:15.906Z,25
2022-10-13T13:05:15.818Z,30
2022-10-13T13:10:15.970Z,24
2022-10-13T13:15:17.121Z,28
2022-10-13T13:20:15.940Z,27
2022-10-13T13:25:15.942Z,23
2022-10-13T13:30:16.018Z,25
2022-10-13T13:35:15.982Z,24
2022-10-13T13:40:15.986Z,26
2022-10-13T13:45:16.174Z,27
2022-10-13T13:50:15.961Z,24
2022-10-13T13:55:15.947Z,23
2022-10-13T14:00:16.019Z,25
2022-10-13T14:05:16.102Z,26
2022-10-13T14:10:16.154Z,32
2022-10-13T14:15:16.007Z,32
2022-10-13T14:20:15.887Z,29
2022-10-13T14:25:16.181Z,25
2022-10-13T14:30:16.013Z,24
2022-10-13T14:35:16.088Z,26
2022-10-13T14:40:16.168Z,24
2022-10-13T14:45:16.083Z,23
2022-10-13T14:50:16.082Z,25
2022-10-13T14:55:16.024Z,21
2022-10-13T15:00:16.106Z,21
2022-10-13T15:05:16.171Z,23
2022-10-13T15:10:16.105Z,27
2022-10-13T15:15:16.171Z,30
2022-10-13T15:20:16.251Z,28
2022-10-13T15:25:16.078Z,28
2022-10-13T15:30:16.116Z,24
2022-10-13T15:35:16.178Z,26
2022-10-13T15:40:16.234Z,25
2022-10-13T15:45:16.420Z,26
2022-10-13T15:50:16.178Z,25
2022-10-13T15:55:16.162Z,22
2022-10-13T16:00:16.217Z,24
2022-10-13T16:05:16.217Z,26
2022-10-13T16:10:16.197Z,19
2022-10-13T16:15:16.202Z,19
2022-10-13T16:20:16.168Z,23
2022-10-13T16:25:17.440Z,20
2022-10-13T16:30:16.394Z,20
2022-10-13T16:35:16.267Z,18
2022-10-13T16:40:16.368Z,24
2022-10-13T16:45:16.278Z,18
2022-10-13T16:50:16.370Z,20
2022-10-13T16:55:16.433Z,24
2022-10-13T17:00:16.420Z,21
2022-10-13T17:05:16.527Z,22
2022-10-13T17:10:16.356Z,24
2022-10-13T17:15:16.477Z,25
2022-10-13T17:20:16.495Z,24
2022-10-13T17:25:16.414Z,25
2022-10-13T17:30:16.372Z,26
2022-10-13T17:35:16.521Z,29
2022-10-13T17:40:16.536Z,25
2022-10-13T17:45:16.378Z,25
2022-10-13T17:50:16.656Z,27
2022-10-13T17:55:16.493Z,27
2022-10-13T18:00:16.488Z,25
2022-10-13T18:05:16.428Z,23
2022-10-13T18:10:16.512Z,23
2022-10-13T18:15:16.563Z,24
2022-10-13T18:20:16.376Z,24
2022-10-13T18:25:16.533Z,23
2022-10-13T18:30:21.350Z,22
2022-10-13T18:35:16.480Z,23
2022-10-13T18:40:16.609Z,26
2022-10-13T18:45:16.473Z,23
2022-10-13T18:50:16.636Z,20
2022-10-13T18:55:16.626Z,23
2022-10-13T19:00:16.569Z,23
2022-10-13T19:05:16.554Z,23
2022-10-13T19:10:16.554Z,22
2022-10-13T19:15:16.611Z,23
2022-10-13T19:20:16.608Z,28
2022-10-13T19:25:16.603Z,25
2022-10-13T19:30:16.636Z,24
2022-10-13T19:35:16.813Z,18
2022-10-13T19:40:16.682Z,22
2022-10-13T19:45:16.683Z,21
2022-10-13T19:50:16.711Z,22
2022-10-13T19:55:16.737Z,23
2022-10-13T20:00:16.646Z,24
2022-10-13T20:05:16.710Z,22
2022-10-13T20:10:16.735Z,24
2022-10-13T20:15:16.692Z,21
2022-10-13T20:20:20.145Z,26
2022-10-13T20:25:16.961Z,24
2022-10-13T20:30:16.830Z,26
2022-10-13T20:35:16.758Z,23
2022-10-13T20:40:16.792Z,23
2022-10-13T20:45:16.902Z,20
2022-10-13T20:50:16.944Z,25
2022-10-13T20:55:16.780Z,21
2022-10-13T21:00:16.840Z,21
2022-10-13T21:05:16.804Z,23
2022-10-13T21:10:16.826Z,17
2022-10-13T21:15:16.875Z,23
2022-10-13T21:20:17.013Z,19
2022-10-13T21:25:16.843Z,20
2022-10-13T21:30:16.997Z,17
2022-10-13T21:35:16.907Z,19
2022-10-13T21:40:16.908Z,20
2022-10-13T21:45:16.850Z,21
2022-10-13T21:50:16.966Z,23
2022-10-13T21:55:16.888Z,20
2022-10-13T22:00:16.950Z,23
2022-10-13T22:05:16.925Z,24
2022-10-13T22:10:17.070Z,26
2022-10-13T22:15:16.924Z,25
2022-10-13T22:20:16.853Z,23
2022-10-13T22:25:16.942Z,24
2022-10-13T22:30:17.029Z,23
2022-10-13T22:35:17.037Z,23
2022-10-13T22:40:16.984Z,24
2022-10-13T22:45:17.007Z,23
2022-10-13T22:50:17.011Z,24
2022-10-13T22:55:17.276Z,24
2022-10-13T23:00:17.034Z,26
2022-10-13T23:05:17.066Z,30
2022-10-13T23:10:17.098Z,30
2022-10-13T23:15:17.082Z,27
2022-10-13T23:20:17.160Z,24
2022-10-13T23:25:17.118Z,23
2022-10-13T23:30:17.250Z,21
2022-10-13T23:35:17.184Z,23
2022-10-13T23:40:17.269Z,20
2022-10-13T23:45:17.117Z,22
2022-10-13T23:50:17.209Z,24
2022-10-13T23:55:17.232Z,25
